Time;durP1;ratioP1;P1;durP2;ratioP2;P2;SDS_P1;SDS_P2;PMS_P1;PMS_P2;Temp;Humidity;BMP_temperature;BMP_pressure;BME280_temperature;BME280_humidity;BME280_pressure;Samples;Min_cycle;Max_cycle;Signal;HPM_P1;HPM_P2
2022/12/08 00:00:55;;;;;;;7.50;2.70;;;;;;;;;;5092456;28;20519;-74
2022/12/08 00:03:21;;;;;;;1.85;1.23;;;;;;;;;;5086992;28;20407;-74
2022/12/08 00:11:18;;;;;;;2.45;1.40;;;;;;;;;;5095375;28;20081;-74
2022/12/08 00:13:44;;;;;;;3.35;1.30;;;;;;;;;;5105433;28;20039;-74
2022/12/08 00:16:11;;;;;;;3.03;1.52;;;;;;;;;;5091844;28;20411;-74
2022/12/08 00:18:37;;;;;;;2.05;1.05;;;;;;;;;;5074501;28;20040;-74
2022/12/08 00:21:03;;;;;;;2.17;1.40;;;;;;;;;;5069679;28;20048;-74
2022/12/08 00:23:29;;;;;;;4.75;1.13;;;;;;;;;;5093719;28;20040;-74
2022/12/08 00:25:56;;;;;;;8.73;1.30;;;;;;;;;;5092434;28;20086;-74
2022/12/08 00:28:22;;;;;;;3.35;1.35;;;;;;;;;;5092012;28;20051;-74
2022/12/08 00:30:48;;;;;;;1.95;1.10;;;;;;;;;;5101451;28;20047;-74
2022/12/08 00:33:14;;;;;;;3.08;1.30;;;;;;;;;;5075215;28;20055;-74
2022/12/08 00:35:40;;;;;;;2.92;1.40;;;;;;;;;;5092337;28;20040;-74
2022/12/08 00:38:06;;;;;;;5.82;1.33;;;;;;;;;;5086295;28;20067;-74
2022/12/08 00:40:32;;;;;;;3.33;1.17;;;;;;;;;;5061254;28;20127;-74
2022/12/08 00:42:58;;;;;;;2.90;1.55;;;;;;;;;;5073575;28;20141;-74
2022/12/08 00:45:24;;;;;;;2.65;1.10;;;;;;;;;;5058048;28;20136;-75
2022/12/08 00:47:50;;;;;;;1.27;1.17;;;;;;;;;;5098446;28;20425;-75
2022/12/08 00:50:16;;;;;;;3.90;1.20;;;;;;;;;;5079569;28;20543;-75
2022/12/08 00:52:42;;;;;;;3.05;1.00;;;;;;;;;;5076002;28;20046;-75
2022/12/08 00:55:08;;;;;;;2.17;1.08;;;;;;;;;;5102234;28;20094;-75
2022/12/08 00:57:34;;;;;;;2.70;1.27;;;;;;;;;;5093014;28;20131;-74
2022/12/08 01:00:00;;;;;;;6.82;1.27;;;;;;;;;;5098896;28;20056;-74
2022/12/08 01:02:26;;;;;;;2.20;1.17;;;;;;;;;;5080769;28;20513;-74
2022/12/08 01:04:52;;;;;;;2.67;1.00;;;;;;;;;;5096318;28;20048;-74
2022/12/08 01:07:18;;;;;;;1.90;1.33;;;;;;;;;;5092824;28;20048;-75
2022/12/08 01:09:45;;;;;;;2.05;1.00;;;;;;;;;;5092276;28;20403;-74
2022/12/08 01:12:11;;;;;;;2.10;1.15;;;;;;;;;;5085588;28;20044;-74
2022/12/08 01:14:37;;;;;;;2.83;0.98;;;;;;;;;;5093518;28;20036;-74
2022/12/08 01:17:03;;;;;;;2.17;1.05;;;;;;;;;;5077333;28;20433;-74
2022/12/08 01:19:29;;;;;;;2.30;0.95;;;;;;;;;;5074746;28;20053;-74
2022/12/08 01:21:55;;;;;;;1.27;0.98;;;;;;;;;;5075710;28;20107;-74
2022/12/08 01:24:22;;;;;;;2.25;1.13;;;;;;;;;;5075572;28;20044;-74
2022/12/08 01:26:48;;;;;;;1.67;0.98;;;;;;;;;;5092911;28;20044;-74
2022/12/08 01:29:14;;;;;;;1.60;1.02;;;;;;;;;;5065254;28;20490;-74
2022/12/08 01:31:41;;;;;;;1.85;1.00;;;;;;;;;;5090965;28;20479;-74
2022/12/08 01:34:07;;;;;;;1.50;0.95;;;;;;;;;;5092764;28;20050;-74
2022/12/08 01:36:36;;;;;;;1.58;0.98;;;;;;;;;;5058168;28;20079;-74
2022/12/08 01:39:02;;;;;;;2.28;0.90;;;;;;;;;;5087396;28;20522;-74
2022/12/08 01:41:30;;;;;;;1.45;0.98;;;;;;;;;;5089050;28;20047;-74
2022/12/08 01:44:00;;;;;;;1.35;0.90;;;;;;;;;;5093214;28;20040;-74
2022/12/08 01:46:27;;;;;;;1.05;0.90;;;;;;;;;;5095748;28;20408;-74
2022/12/08 01:49:02;;;;;;;1.42;1.00;;;;;;;;;;5094343;28;20055;-77
2022/12/08 01:51:30;;;;;;;1.65;0.90;;;;;;;;;;5098301;28;20036;-79
2022/12/08 01:53:56;;;;;;;1.55;1.08;;;;;;;;;;5094288;28;20047;-77
2022/12/08 01:56:27;;;;;;;2.00;1.20;;;;;;;;;;5080842;28;20036;-76
2022/12/08 01:58:54;;;;;;;3.58;1.30;;;;;;;;;;5093937;28;20048;-75
2022/12/08 02:01:21;;;;;;;1.48;1.10;;;;;;;;;;5076506;28;20089;-75
2022/12/08 02:03:54;;;;;;;2.85;0.93;;;;;;;;;;5094958;28;20040;-75
2022/12/08 02:06:20;;;;;;;2.78;1.17;;;;;;;;;;5100461;28;20123;-76
2022/12/08 02:08:47;;;;;;;3.28;1.48;;;;;;;;;;5095395;28;20084;-75
2022/12/08 02:11:13;;;;;;;3.08;1.23;;;;;;;;;;5095278;28;20121;-74
2022/12/08 02:13:40;;;;;;;5.43;1.85;;;;;;;;;;5094421;28;20036;-74
2022/12/08 02:16:09;;;;;;;3.40;1.42;;;;;;;;;;5095660;28;20051;-74
2022/12/08 02:18:35;;;;;;;3.60;1.50;;;;;;;;;;5083209;28;20055;-74
2022/12/08 02:21:17;;;;;;;6.90;1.40;;;;;;;;;;5092257;28;20054;-74
2022/12/08 02:23:43;;;;;;;3.08;1.33;;;;;;;;;;5095976;28;20097;-74
2022/12/08 02:26:28;;;;;;;4.00;1.27;;;;;;;;;;5077346;28;20052;-74
2022/12/08 02:29:00;;;;;;;6.43;1.30;;;;;;;;;;5094608;28;20044;-74
2022/12/08 02:31:39;;;;;;;6.50;1.65;;;;;;;;;;5062306;28;20387;-74
2022/12/08 02:34:17;;;;;;;1.77;1.10;;;;;;;;;;5094828;28;20036;-74
2022/12/08 02:36:55;;;;;;;4.45;1.60;;;;;;;;;;5094043;28;20043;-74
2022/12/08 02:39:35;;;;;;;4.05;1.20;;;;;;;;;;5059142;28;20044;-74
2022/12/08 02:42:07;;;;;;;3.75;1.23;;;;;;;;;;5094593;28;20048;-76
2022/12/08 02:44:40;;;;;;;5.38;1.30;;;;;;;;;;5095236;28;20497;-76
2022/12/08 02:47:08;;;;;;;4.07;1.35;;;;;;;;;;5094281;28;20040;-75
2022/12/08 02:49:35;;;;;;;3.05;1.20;;;;;;;;;;5092800;28;20077;-75
2022/12/08 02:52:13;;;;;;;2.78;1.23;;;;;;;;;;5093253;28;20097;-74
2022/12/08 02:54:58;;;;;;;2.35;1.00;;;;;;;;;;5093016;28;20036;-74
2022/12/08 02:57:33;;;;;;;3.33;1.20;;;;;;;;;;5073941;28;20044;-74
2022/12/08 03:00:08;;;;;;;1.70;0.82;;;;;;;;;;5069690;28;20147;-74
2022/12/08 03:02:34;;;;;;;2.58;0.90;;;;;;;;;;5093875;28;20566;-74
2022/12/08 03:05:10;;;;;;;4.03;0.93;;;;;;;;;;5095362;28;20040;-74
2022/12/08 03:07:46;;;;;;;2.38;1.50;;;;;;;;;;5093569;28;20052;-74
2022/12/08 03:10:17;;;;;;;2.33;1.00;;;;;;;;;;5075511;28;20118;-74
2022/12/08 03:12:48;;;;;;;2.17;1.05;;;;;;;;;;5094407;28;20399;-74
2022/12/08 03:15:16;;;;;;;1.10;0.80;;;;;;;;;;5076385;28;20101;-74
2022/12/08 03:17:45;;;;;;;2.50;0.93;;;;;;;;;;5080260;28;20036;-74
2022/12/08 03:20:12;;;;;;;1.23;0.85;;;;;;;;;;5072842;28;20048;-75
2022/12/08 03:22:40;;;;;;;1.17;1.00;;;;;;;;;;5094234;28;20085;-78
2022/12/08 03:25:07;;;;;;;3.28;1.10;;;;;;;;;;5096775;28;20545;-80
2022/12/08 03:27:34;;;;;;;3.08;1.40;;;;;;;;;;5085251;28;20051;-77
2022/12/08 03:30:00;;;;;;;3.80;1.30;;;;;;;;;;5086780;28;20415;-79
2022/12/08 03:32:46;;;;;;;2.30;1.00;;;;;;;;;;5070749;28;20040;-78
2022/12/08 03:35:14;;;;;;;3.10;1.08;;;;;;;;;;5093836;28;20067;-76
2022/12/08 03:37:40;;;;;;;3.30;1.33;;;;;;;;;;5089916;28;20040;-76
2022/12/08 03:40:08;;;;;;;3.78;1.35;;;;;;;;;;5089737;28;20088;-76
2022/12/08 03:42:34;;;;;;;3.78;1.40;;;;;;;;;;5098069;28;20044;-75
2022/12/08 03:45:00;;;;;;;3.25;1.35;;;;;;;;;;5088411;28;20123;-74
2022/12/08 03:47:26;;;;;;;3.28;1.20;;;;;;;;;;5088700;28;20032;-74
2022/12/08 03:49:52;;;;;;;3.60;1.92;;;;;;;;;;5090008;28;20043;-74
2022/12/08 03:52:18;;;;;;;4.03;1.60;;;;;;;;;;5088312;28;20094;-74
2022/12/08 03:54:44;;;;;;;4.35;1.40;;;;;;;;;;5095766;28;20044;-74
2022/12/08 03:57:10;;;;;;;1.02;0.93;;;;;;;;;;5092684;28;20039;-74
2022/12/08 03:59:36;;;;;;;1.92;1.30;;;;;;;;;;5109471;28;20040;-74
2022/12/08 04:02:02;;;;;;;1.30;1.13;;;;;;;;;;5090781;28;20045;-74
2022/12/08 04:04:28;;;;;;;3.40;1.38;;;;;;;;;;5067273;28;20047;-74
2022/12/08 04:06:55;;;;;;;2.83;1.00;;;;;;;;;;5096582;28;20051;-74
2022/12/08 04:09:21;;;;;;;2.28;1.00;;;;;;;;;;5093197;28;20056;-74
2022/12/08 04:11:47;;;;;;;3.03;1.23;;;;;;;;;;5092818;28;20040;-74
2022/12/08 04:14:13;;;;;;;3.05;1.13;;;;;;;;;;5093578;28;20040;-74
2022/12/08 04:16:39;;;;;;;4.35;1.17;;;;;;;;;;5086381;28;20064;-74
2022/12/08 04:19:05;;;;;;;4.38;1.30;;;;;;;;;;5096458;28;20088;-79
2022/12/08 04:21:31;;;;;;;3.17;1.13;;;;;;;;;;5074940;28;20630;-76
2022/12/08 04:23:57;;;;;;;2.60;1.05;;;;;;;;;;5090882;28;20051;-75
2022/12/08 04:26:23;;;;;;;4.20;1.30;;;;;;;;;;5094814;28;20031;-74
2022/12/08 04:28:49;;;;;;;3.42;1.00;;;;;;;;;;5092129;28;20050;-74
2022/12/08 04:31:15;;;;;;;2.95;1.08;;;;;;;;;;5091121;28;20043;-74
2022/12/08 04:33:41;;;;;;;3.10;1.25;;;;;;;;;;5108832;28;20046;-74
2022/12/08 04:36:08;;;;;;;3.97;1.10;;;;;;;;;;5092270;28;20107;-74
2022/12/08 04:38:34;;;;;;;2.33;1.40;;;;;;;;;;5089227;28;20051;-74
2022/12/08 04:41:01;;;;;;;4.15;1.35;;;;;;;;;;5093271;28;20047;-74
2022/12/08 04:43:27;;;;;;;3.50;1.40;;;;;;;;;;5074792;28;20475;-74
2022/12/08 04:45:53;;;;;;;5.00;1.60;;;;;;;;;;5092617;28;20044;-74
2022/12/08 04:48:19;;;;;;;4.25;1.63;;;;;;;;;;5093023;28;20450;-75
2022/12/08 04:50:45;;;;;;;4.35;1.40;;;;;;;;;;5074372;28;20076;-74
2022/12/08 04:53:12;;;;;;;5.13;1.60;;;;;;;;;;5074617;28;20048;-74
2022/12/08 04:55:40;;;;;;;6.38;2.20;;;;;;;;;;5094774;28;20485;-74
2022/12/08 04:58:06;;;;;;;7.78;2.60;;;;;;;;;;5091576;28;20052;-74
2022/12/08 05:00:32;;;;;;;6.20;3.13;;;;;;;;;;5071352;28;20062;-74
2022/12/08 05:02:58;;;;;;;4.38;2.38;;;;;;;;;;5073489;28;20054;-74
2022/12/08 05:05:24;;;;;;;4.32;1.75;;;;;;;;;;5102429;28;20067;-74
2022/12/08 05:07:50;;;;;;;4.30;1.90;;;;;;;;;;5101384;28;20539;-74
2022/12/08 05:10:16;;;;;;;5.05;1.67;;;;;;;;;;5091702;28;20059;-74
2022/12/08 05:12:42;;;;;;;6.93;1.95;;;;;;;;;;5063958;28;20052;-74
2022/12/08 05:15:08;;;;;;;5.30;2.28;;;;;;;;;;5069659;28;20055;-74
2022/12/08 05:17:34;;;;;;;3.08;1.40;;;;;;;;;;5092553;28;20512;-74
2022/12/08 05:20:00;;;;;;;3.70;1.80;;;;;;;;;;5075922;28;20483;-74
2022/12/08 05:22:26;;;;;;;3.50;1.83;;;;;;;;;;5096299;28;20040;-74
2022/12/08 05:24:52;;;;;;;3.75;1.40;;;;;;;;;;5097263;28;20044;-74
2022/12/08 05:27:18;;;;;;;4.25;1.38;;;;;;;;;;5097358;28;20032;-74
2022/12/08 05:29:46;;;;;;;3.88;1.55;;;;;;;;;;5095447;28;20044;-74
2022/12/08 05:32:13;;;;;;;3.13;1.40;;;;;;;;;;5078217;28;20082;-74
2022/12/08 05:34:39;;;;;;;3.13;1.30;;;;;;;;;;5096997;28;20036;-74
2022/12/08 05:37:05;;;;;;;3.63;1.50;;;;;;;;;;5078693;28;20048;-74
2022/12/08 05:39:31;;;;;;;3.15;1.40;;;;;;;;;;5066620;28;20433;-74
2022/12/08 05:41:58;;;;;;;2.55;1.30;;;;;;;;;;5077464;28;20557;-74
2022/12/08 05:44:24;;;;;;;2.65;1.20;;;;;;;;;;5089870;28;20052;-74
2022/12/08 05:46:50;;;;;;;2.53;1.45;;;;;;;;;;5076632;28;20128;-74
2022/12/08 05:49:16;;;;;;;2.03;1.25;;;;;;;;;;5078398;28;20044;-74
2022/12/08 05:51:42;;;;;;;2.97;1.33;;;;;;;;;;5077807;28;20051;-74
2022/12/08 05:54:08;;;;;;;3.28;1.50;;;;;;;;;;5096702;28;20056;-74
2022/12/08 05:56:34;;;;;;;3.53;1.40;;;;;;;;;;5098896;28;20059;-74
2022/12/08 05:59:00;;;;;;;3.28;1.45;;;;;;;;;;5078128;28;20133;-74
2022/12/08 06:01:28;;;;;;;4.68;1.60;;;;;;;;;;5071783;28;20044;-75
2022/12/08 06:03:54;;;;;;;1.25;1.15;;;;;;;;;;5095978;28;20536;-75
2022/12/08 06:06:21;;;;;;;2.53;1.33;;;;;;;;;;5076727;28;20043;-75
2022/12/08 06:08:47;;;;;;;6.75;2.25;;;;;;;;;;5091320;28;20059;-75
2022/12/08 06:11:19;;;;;;;1.65;1.48;;;;;;;;;;5091714;28;20051;-76
2022/12/08 06:13:45;;;;;;;3.33;1.65;;;;;;;;;;5096951;28;20048;-75
2022/12/08 06:16:11;;;;;;;3.22;1.30;;;;;;;;;;5095537;28;20047;-75
2022/12/08 06:18:40;;;;;;;3.15;1.42;;;;;;;;;;5095789;28;20044;-77
2022/12/08 06:21:07;;;;;;;3.20;1.70;;;;;;;;;;5095775;28;20044;-75
2022/12/08 06:23:34;;;;;;;4.88;1.63;;;;;;;;;;5095832;28;20079;-75
2022/12/08 06:26:04;;;;;;;5.35;1.60;;;;;;;;;;5078202;28;20047;-74
2022/12/08 06:28:30;;;;;;;4.50;1.80;;;;;;;;;;5074814;28;20126;-74
2022/12/08 06:30:56;;;;;;;2.75;1.33;;;;;;;;;;5094969;28;20036;-74
2022/12/08 06:33:22;;;;;;;3.05;1.80;;;;;;;;;;5065710;28;20052;-74
2022/12/08 06:35:48;;;;;;;4.93;2.55;;;;;;;;;;5094272;28;20036;-74
2022/12/08 06:38:15;;;;;;;3.28;1.50;;;;;;;;;;5079679;28;20505;-74
2022/12/08 06:40:41;;;;;;;3.80;1.50;;;;;;;;;;5092586;28;20036;-74
2022/12/08 06:43:07;;;;;;;4.45;1.65;;;;;;;;;;5083563;28;20108;-74
2022/12/08 06:45:33;;;;;;;7.95;1.90;;;;;;;;;;5075879;28;20036;-74
2022/12/08 06:48:00;;;;;;;5.63;1.60;;;;;;;;;;5088789;28;20383;-75
2022/12/08 06:50:27;;;;;;;4.63;1.38;;;;;;;;;;5080696;28;20035;-74
2022/12/08 06:52:53;;;;;;;3.83;1.67;;;;;;;;;;5093644;28;20051;-74
2022/12/08 06:55:19;;;;;;;4.30;1.75;;;;;;;;;;5075198;28;20505;-75
2022/12/08 06:57:46;;;;;;;3.63;1.58;;;;;;;;;;5094293;28;20115;-75
2022/12/08 07:00:12;;;;;;;5.38;1.90;;;;;;;;;;5056540;28;20064;-74
2022/12/08 07:02:38;;;;;;;2.78;1.50;;;;;;;;;;5102507;28;20032;-75
2022/12/08 07:05:04;;;;;;;4.70;1.70;;;;;;;;;;5100093;28;20124;-74
2022/12/08 07:07:30;;;;;;;2.83;1.50;;;;;;;;;;5094060;28;20138;-74
2022/12/08 07:09:56;;;;;;;4.03;1.70;;;;;;;;;;5094208;28;20036;-75
2022/12/08 07:12:25;;;;;;;3.22;1.52;;;;;;;;;;5076549;28;20101;-75
2022/12/08 07:14:51;;;;;;;2.60;1.67;;;;;;;;;;5093340;28;20070;-74
2022/12/08 07:17:17;;;;;;;3.00;1.48;;;;;;;;;;5082366;28;20440;-74
2022/12/08 07:19:43;;;;;;;7.90;2.00;;;;;;;;;;5089621;28;20499;-75
2022/12/08 07:22:09;;;;;;;4.63;1.90;;;;;;;;;;5069271;28;20082;-75
2022/12/08 07:24:35;;;;;;;5.90;1.88;;;;;;;;;;5072874;28;20048;-75
2022/12/08 07:27:01;;;;;;;6.95;1.63;;;;;;;;;;5092297;28;20507;-75
2022/12/08 07:29:27;;;;;;;4.78;1.70;;;;;;;;;;5074608;28;20414;-75
2022/12/08 07:31:53;;;;;;;7.45;2.65;;;;;;;;;;5074380;28;20478;-75
2022/12/08 07:34:19;;;;;;;7.97;3.88;;;;;;;;;;5083699;28;20047;-75
2022/12/08 07:36:45;;;;;;;5.88;3.40;;;;;;;;;;5072963;28;20131;-74
2022/12/08 07:39:11;;;;;;;6.45;3.03;;;;;;;;;;5103650;28;20042;-74
2022/12/08 07:41:37;;;;;;;13.25;7.93;;;;;;;;;;5072339;28;20044;-74
2022/12/08 07:44:03;;;;;;;11.50;7.25;;;;;;;;;;5073581;28;20044;-74
2022/12/08 07:46:29;;;;;;;9.50;7.28;;;;;;;;;;5093110;28;20088;-78
2022/12/08 07:48:56;;;;;;;10.65;5.63;;;;;;;;;;5072806;28;20130;-75
2022/12/08 07:51:23;;;;;;;7.63;5.80;;;;;;;;;;5076370;28;20399;-75
2022/12/08 07:53:50;;;;;;;7.68;4.80;;;;;;;;;;5085765;28;20423;-76
2022/12/08 07:56:16;;;;;;;7.57;4.68;;;;;;;;;;5094441;28;20074;-76
2022/12/08 07:58:44;;;;;;;7.55;4.10;;;;;;;;;;5093831;28;20426;-75
2022/12/08 08:01:40;;;;;;;8.90;4.40;;;;;;;;;;5074211;28;20077;-75
2022/12/08 08:04:06;;;;;;;6.60;3.78;;;;;;;;;;5077975;28;20044;-75
2022/12/08 08:06:33;;;;;;;5.00;3.47;;;;;;;;;;5095112;28;20036;-75
2022/12/08 08:08:59;;;;;;;5.50;3.40;;;;;;;;;;5093479;28;20113;-75
2022/12/08 08:11:25;;;;;;;9.23;2.97;;;;;;;;;;5074879;28;20068;-77
2022/12/08 08:13:51;;;;;;;10.05;4.13;;;;;;;;;;5087417;28;20043;-77
2022/12/08 08:16:18;;;;;;;11.00;3.70;;;;;;;;;;5094825;28;20051;-78
2022/12/08 08:18:45;;;;;;;5.95;4.15;;;;;;;;;;5094220;28;20040;-76
2022/12/08 08:21:11;;;;;;;13.30;6.75;;;;;;;;;;5093742;28;20491;-76
2022/12/08 08:23:37;;;;;;;10.60;7.38;;;;;;;;;;5094796;28;20047;-78
2022/12/08 08:26:04;;;;;;;4.68;4.15;;;;;;;;;;5094219;28;20044;-78
2022/12/08 08:28:30;;;;;;;6.45;3.60;;;;;;;;;;5080416;28;20044;-77
2022/12/08 08:30:57;;;;;;;9.07;3.45;;;;;;;;;;5085591;28;20047;-77
2022/12/08 08:33:23;;;;;;;7.78;3.10;;;;;;;;;;5090970;28;20518;-77
2022/12/08 08:35:49;;;;;;;7.88;3.30;;;;;;;;;;5095918;28;20109;-77
2022/12/08 08:38:15;;;;;;;7.43;3.17;;;;;;;;;;5093443;28;20128;-77
2022/12/08 08:40:41;;;;;;;9.13;3.33;;;;;;;;;;5093670;28;20044;-77
2022/12/08 08:43:07;;;;;;;9.30;3.90;;;;;;;;;;5092119;28;20044;-77
2022/12/08 08:45:34;;;;;;;5.55;3.10;;;;;;;;;;5092448;28;20077;-77
2022/12/08 08:48:00;;;;;;;13.80;3.72;;;;;;;;;;5093943;28;20040;-77
2022/12/08 08:50:27;;;;;;;6.63;3.15;;;;;;;;;;5075364;28;20044;-76
2022/12/08 08:52:53;;;;;;;6.25;3.63;;;;;;;;;;5093876;28;20048;-78
2022/12/08 08:55:19;;;;;;;6.28;4.00;;;;;;;;;;5091814;28;20036;-77
2022/12/08 08:57:45;;;;;;;7.72;2.95;;;;;;;;;;5093270;28;20083;-76
2022/12/08 09:00:11;;;;;;;7.28;2.88;;;;;;;;;;5093406;28;20044;-76
2022/12/08 09:02:37;;;;;;;7.72;3.10;;;;;;;;;;5073862;28;20036;-77
2022/12/08 09:05:04;;;;;;;8.73;3.60;;;;;;;;;;5092921;28;20395;-77
2022/12/08 09:07:30;;;;;;;8.52;3.92;;;;;;;;;;5070254;28;20082;-78
2022/12/08 09:09:56;;;;;;;11.80;4.63;;;;;;;;;;5090129;28;20131;-76
2022/12/08 09:12:22;;;;;;;12.85;6.43;;;;;;;;;;5090197;28;20048;-76
2022/12/08 09:14:48;;;;;;;18.52;8.85;;;;;;;;;;5093164;28;20044;-77
2022/12/08 09:17:15;;;;;;;17.73;7.50;;;;;;;;;;5081362;28;20044;-76
2022/12/08 09:19:41;;;;;;;15.82;6.55;;;;;;;;;;5079509;28;20036;-77
2022/12/08 09:22:07;;;;;;;11.90;5.97;;;;;;;;;;5092332;28;20543;-78
2022/12/08 09:24:33;;;;;;;14.15;5.88;;;;;;;;;;5091984;28;20495;-77
2022/12/08 09:26:59;;;;;;;14.80;5.40;;;;;;;;;;5092936;28;20492;-77
2022/12/08 09:29:25;;;;;;;10.05;5.00;;;;;;;;;;5064739;28;20040;-77
2022/12/08 09:31:53;;;;;;;11.45;4.72;;;;;;;;;;5092851;28;20097;-77
2022/12/08 09:34:19;;;;;;;7.40;3.45;;;;;;;;;;5090820;28;20098;-77
2022/12/08 09:36:45;;;;;;;7.05;3.55;;;;;;;;;;5090526;28;20414;-77
2022/12/08 09:39:11;;;;;;;7.50;3.85;;;;;;;;;;5090546;28;20403;-77
2022/12/08 09:41:37;;;;;;;6.53;3.55;;;;;;;;;;5092420;28;20123;-77
2022/12/08 09:44:12;;;;;;;6.53;3.17;;;;;;;;;;5091222;28;20044;-77
2022/12/08 09:46:39;;;;;;;12.00;5.38;;;;;;;;;;5089554;28;20490;-77
2022/12/08 09:49:12;;;;;;;12.15;5.40;;;;;;;;;;5084006;28;20583;-77
2022/12/08 09:51:40;;;;;;;9.15;4.75;;;;;;;;;;5072659;28;20468;-77
2022/12/08 09:54:08;;;;;;;2.58;1.70;;;;;;;;;;5084059;28;20530;-77
2022/12/08 09:56:35;;;;;;;2.30;1.25;;;;;;;;;;5092954;28;20097;-77
2022/12/08 09:59:08;;;;;;;1.88;1.38;;;;;;;;;;5090941;28;20055;-77
2022/12/08 10:01:40;;;;;;;5.57;2.80;;;;;;;;;;5093260;28;20040;-78
2022/12/08 10:04:17;;;;;;;4.45;2.10;;;;;;;;;;5092430;28;20043;-78
2022/12/08 10:06:47;;;;;;;3.80;2.00;;;;;;;;;;5078500;28;20052;-77
2022/12/08 10:09:37;;;;;;;3.75;1.40;;;;;;;;;;5095242;28;20055;-76
2022/12/08 10:12:21;;;;;;;3.90;1.98;;;;;;;;;;5094558;28;20073;-76
2022/12/08 10:14:50;;;;;;;3.17;1.30;;;;;;;;;;5096048;28;20056;-76
2022/12/08 10:17:27;;;;;;;2.53;1.33;;;;;;;;;;5077622;28;20052;-76
2022/12/08 10:20:00;;;;;;;7.38;1.63;;;;;;;;;;5087296;28;20040;-77
2022/12/08 10:22:31;;;;;;;4.70;1.10;;;;;;;;;;5095508;28;20105;-77
2022/12/08 10:24:59;;;;;;;1.65;1.40;;;;;;;;;;5094263;28;20487;-81
2022/12/08 10:27:26;;;;;;;5.25;1.20;;;;;;;;;;5098258;28;20044;-84
2022/12/08 10:29:52;;;;;;;3.03;1.10;;;;;;;;;;5093749;28;20049;-82
2022/12/08 10:32:20;;;;;;;2.63;1.55;;;;;;;;;;5081548;28;20043;-80
2022/12/08 10:35:04;;;;;;;1.40;0.90;;;;;;;;;;5079238;28;20131;-80
2022/12/08 10:37:30;;;;;;;1.90;1.52;;;;;;;;;;5093527;28;20503;-82
2022/12/08 10:40:00;;;;;;;3.88;1.10;;;;;;;;;;5087806;28;20040;-81
2022/12/08 10:42:31;;;;;;;1.23;0.90;;;;;;;;;;5092470;28;20556;-80
2022/12/08 10:45:00;;;;;;;1.35;1.00;;;;;;;;;;5078195;28;20051;-80
2022/12/08 10:47:27;;;;;;;2.30;0.93;;;;;;;;;;5076920;28;20491;-78
2022/12/08 10:50:19;;;;;;;1.65;1.00;;;;;;;;;;5095007;28;20051;-77
2022/12/08 10:52:53;;;;;;;2.40;0.85;;;;;;;;;;5093895;28;20067;-76
2022/12/08 10:55:20;;;;;;;3.35;1.27;;;;;;;;;;5092896;28;20031;-76
2022/12/08 10:57:49;;;;;;;2.13;1.25;;;;;;;;;;5095333;28;20048;-76
2022/12/08 11:00:25;;;;;;;4.18;1.30;;;;;;;;;;5077128;28;20051;-77
2022/12/08 11:02:54;;;;;;;5.00;1.30;;;;;;;;;;5093376;28;20040;-77
2022/12/08 11:05:22;;;;;;;2.60;1.30;;;;;;;;;;5075403;28;20053;-79
2022/12/08 11:07:52;;;;;;;3.08;1.98;;;;;;;;;;5079210;28;20056;-77
2022/12/08 11:10:19;;;;;;;5.05;2.80;;;;;;;;;;5096517;28;20048;-79
2022/12/08 11:12:45;;;;;;;6.72;3.63;;;;;;;;;;5094786;28;20123;-77
2022/12/08 11:15:15;;;;;;;7.07;3.10;;;;;;;;;;5094644;28;20438;-77
2022/12/08 11:17:44;;;;;;;6.32;2.60;;;;;;;;;;5094796;28;20072;-77
2022/12/08 11:20:10;;;;;;;4.13;2.20;;;;;;;;;;5076589;28;20123;-77
2022/12/08 11:22:44;;;;;;;2.47;1.67;;;;;;;;;;5092445;28;20075;-78
2022/12/08 11:25:12;;;;;;;3.67;1.60;;;;;;;;;;5085887;28;20086;-75
2022/12/08 11:27:44;;;;;;;2.72;1.55;;;;;;;;;;5094933;28;20076;-76
2022/12/08 11:30:15;;;;;;;2.17;1.60;;;;;;;;;;5094320;28;20142;-76
2022/12/08 11:32:43;;;;;;;2.67;1.25;;;;;;;;;;5080254;28;20158;-76
2022/12/08 11:35:14;;;;;;;1.33;1.20;;;;;;;;;;5093815;28;20509;-76
2022/12/08 11:37:41;;;;;;;3.70;1.50;;;;;;;;;;5093474;28;20395;-76
2022/12/08 11:40:14;;;;;;;1.95;1.70;;;;;;;;;;5094274;28;20380;-76
2022/12/08 11:42:49;;;;;;;3.20;1.75;;;;;;;;;;5092455;28;20063;-76
2022/12/08 11:45:19;;;;;;;4.47;1.45;;;;;;;;;;5094545;28;20098;-76
2022/12/08 11:47:48;;;;;;;2.45;1.33;;;;;;;;;;5093096;28;20048;-76
2022/12/08 11:50:26;;;;;;;1.55;1.00;;;;;;;;;;5098193;28;20040;-76
2022/12/08 11:52:52;;;;;;;2.60;1.20;;;;;;;;;;5098083;28;20439;-76
2022/12/08 11:55:21;;;;;;;3.30;1.70;;;;;;;;;;5095124;28;20411;-76
2022/12/08 11:57:48;;;;;;;3.88;2.13;;;;;;;;;;5094115;28;20084;-83
2022/12/08 12:00:15;;;;;;;2.88;1.85;;;;;;;;;;5094972;28;20093;-79
2022/12/08 12:02:44;;;;;;;3.55;1.60;;;;;;;;;;5093073;28;20036;-77
2022/12/08 12:05:29;;;;;;;1.58;1.45;;;;;;;;;;5092993;28;20048;-77
2022/12/08 12:08:04;;;;;;;0.82;0.82;;;;;;;;;;5091274;28;20044;-77
2022/12/08 12:10:30;;;;;;;1.55;0.85;;;;;;;;;;5093952;28;20097;-76
2022/12/08 12:13:14;;;;;;;1.65;0.90;;;;;;;;;;5093953;28;20119;-76
2022/12/08 12:15:59;;;;;;;0.80;0.80;;;;;;;;;;5093991;28;20040;-76
2022/12/08 12:18:45;;;;;;;1.10;0.90;;;;;;;;;;5093139;28;20510;-76
2022/12/08 12:21:15;;;;;;;4.10;2.50;;;;;;;;;;5093842;28;20380;-76
2022/12/08 12:23:45;;;;;;;2.47;1.50;;;;;;;;;;5093752;28;20063;-76
2022/12/08 12:26:19;;;;;;;2.42;1.40;;;;;;;;;;5093584;28;20418;-76
2022/12/08 12:28:51;;;;;;;2.25;1.15;;;;;;;;;;5093503;28;20123;-76
2022/12/08 12:31:18;;;;;;;4.80;3.65;;;;;;;;;;5094037;28;20115;-77
2022/12/08 12:33:45;;;;;;;2.83;1.38;;;;;;;;;;5093960;28;20040;-77
2022/12/08 12:36:12;;;;;;;1.60;1.20;;;;;;;;;;5093855;28;20176;-77
2022/12/08 12:39:06;;;;;;;5.93;1.45;;;;;;;;;;5093533;28;20036;-78
2022/12/08 12:41:32;;;;;;;2.83;1.52;;;;;;;;;;5065240;28;20123;-78
2022/12/08 12:44:14;;;;;;;3.20;2.20;;;;;;;;;;5093528;28;20118;-77
2022/12/08 12:46:40;;;;;;;2.63;1.80;;;;;;;;;;5092557;28;20044;-78
2022/12/08 12:49:25;;;;;;;2.30;1.85;;;;;;;;;;5059208;28;20131;-79
2022/12/08 12:51:54;;;;;;;2.75;1.85;;;;;;;;;;5093493;28;20047;-78
2022/12/08 12:54:22;;;;;;;2.03;1.50;;;;;;;;;;5093229;28;20040;-78
2022/12/08 12:56:49;;;;;;;2.25;1.92;;;;;;;;;;5093842;28;20043;-77
2022/12/08 12:59:35;;;;;;;2.58;1.80;;;;;;;;;;5093171;28;20079;-77
2022/12/08 13:02:02;;;;;;;2.35;1.70;;;;;;;;;;5093796;28;20040;-77
2022/12/08 13:04:29;;;;;;;4.07;1.70;;;;;;;;;;5092765;28;20448;-77
2022/12/08 13:06:56;;;;;;;1.65;1.20;;;;;;;;;;5073351;28;20434;-77
2022/12/08 13:09:26;;;;;;;2.60;1.42;;;;;;;;;;5058573;28;20059;-77
2022/12/08 13:11:54;;;;;;;2.95;1.52;;;;;;;;;;5093844;28;20048;-77
2022/12/08 13:14:26;;;;;;;3.70;1.42;;;;;;;;;;5092864;28;20424;-77
2022/12/08 13:16:54;;;;;;;1.73;1.48;;;;;;;;;;5092445;28;20484;-77
2022/12/08 13:19:21;;;;;;;2.85;1.60;;;;;;;;;;5092667;28;20036;-77
2022/12/08 13:21:47;;;;;;;1.95;1.40;;;;;;;;;;5093088;28;20042;-77
2022/12/08 13:24:16;;;;;;;3.65;1.70;;;;;;;;;;5093483;28;20048;-77
2022/12/08 13:26:49;;;;;;;3.55;1.60;;;;;;;;;;5092799;28;20039;-77
2022/12/08 13:29:18;;;;;;;2.35;1.50;;;;;;;;;;5093085;28;20128;-77
2022/12/08 13:31:44;;;;;;;3.58;1.42;;;;;;;;;;5093126;28;20169;-77
2022/12/08 13:34:20;;;;;;;1.90;1.70;;;;;;;;;;5093113;28;20048;-77
2022/12/08 13:36:55;;;;;;;3.65;1.80;;;;;;;;;;5078462;28;20052;-77
2022/12/08 13:39:26;;;;;;;2.22;1.42;;;;;;;;;;5092896;28;20040;-77
2022/12/08 13:42:01;;;;;;;3.72;2.25;;;;;;;;;;5097159;28;20043;-77
2022/12/08 13:44:38;;;;;;;2.70;2.47;;;;;;;;;;5096657;28;20522;-77
2022/12/08 13:47:06;;;;;;;1.67;1.15;;;;;;;;;;5096733;28;20076;-77
2022/12/08 13:49:37;;;;;;;3.10;1.23;;;;;;;;;;5096443;28;20565;-77
2022/12/08 13:52:03;;;;;;;1.58;1.20;;;;;;;;;;5096822;28;20050;-77
2022/12/08 13:54:34;;;;;;;2.50;2.30;;;;;;;;;;5096699;28;20128;-77
2022/12/08 13:57:01;;;;;;;3.03;2.63;;;;;;;;;;5079124;28;20058;-77
2022/12/08 13:59:33;;;;;;;2.70;1.40;;;;;;;;;;5096683;28;20044;-77
2022/12/08 14:02:04;;;;;;;1.15;1.05;;;;;;;;;;5096436;28;20040;-77
2022/12/08 14:04:31;;;;;;;1.85;1.40;;;;;;;;;;5096574;28;20040;-77
2022/12/08 14:06:59;;;;;;;1.67;1.10;;;;;;;;;;5096326;28;20036;-77
2022/12/08 14:09:28;;;;;;;2.17;1.33;;;;;;;;;;5096133;28;20144;-77
2022/12/08 14:11:57;;;;;;;1.50;1.40;;;;;;;;;;5095894;28;20066;-78
2022/12/08 14:14:27;;;;;;;3.08;1.60;;;;;;;;;;5098277;28;20435;-77
2022/12/08 14:16:55;;;;;;;2.80;1.77;;;;;;;;;;5095751;28;20464;-78
2022/12/08 14:19:23;;;;;;;1.77;1.30;;;;;;;;;;5096822;28;20040;-78
2022/12/08 14:22:00;;;;;;;1.27;1.10;;;;;;;;;;5096602;28;20044;-78
2022/12/08 14:24:27;;;;;;;0.95;0.93;;;;;;;;;;5101181;28;20396;-78
2022/12/08 14:26:54;;;;;;;2.08;0.95;;;;;;;;;;5094875;28;20097;-77
2022/12/08 14:29:37;;;;;;;2.00;1.00;;;;;;;;;;5093808;28;20403;-77
2022/12/08 14:32:04;;;;;;;2.72;1.00;;;;;;;;;;5093825;28;20044;-77
2022/12/08 14:34:39;;;;;;;1.83;1.02;;;;;;;;;;5091252;28;20040;-78
2022/12/08 14:37:05;;;;;;;1.85;1.08;;;;;;;;;;5071204;28;20086;-77
2022/12/08 14:39:49;;;;;;;1.10;1.00;;;;;;;;;;5085700;28;20049;-78
2022/12/08 14:42:24;;;;;;;1.33;1.00;;;;;;;;;;5083445;28;20036;-79
2022/12/08 14:44:58;;;;;;;3.35;1.23;;;;;;;;;;5094531;28;20097;-79
2022/12/08 14:47:28;;;;;;;1.10;1.00;;;;;;;;;;5086454;28;20055;-79
2022/12/08 14:49:57;;;;;;;1.20;1.10;;;;;;;;;;5079816;28;20048;-79
2022/12/08 14:52:23;;;;;;;1.98;1.10;;;;;;;;;;5075782;28;20052;-79
2022/12/08 14:54:53;;;;;;;0.80;0.70;;;;;;;;;;5088111;28;20579;-79
2022/12/08 14:57:22;;;;;;;1.05;1.05;;;;;;;;;;5079918;28;20085;-80